createdAt,value
2023-04-08T00:00:26.136Z,22.9
2023-04-08T00:05:44.528Z,22.9
2023-04-08T00:11:02.659Z,22.9
2023-04-08T00:16:20.961Z,22.9
2023-04-08T00:21:39.337Z,22.9
2023-04-08T00:26:57.933Z,22.9
2023-04-08T00:32:16.337Z,22.9
2023-04-08T00:37:34.674Z,22.9
2023-04-08T00:42:53.090Z,22.9
2023-04-08T00:48:11.400Z,22.9
2023-04-08T00:53:29.547Z,22.9
2023-04-08T00:58:48.248Z,22.9
2023-04-08T01:04:07.129Z,22.9
2023-04-08T01:09:25.596Z,22.9
2023-04-08T01:14:44.035Z,22.9
2023-04-08T01:20:02.470Z,22.9
2023-04-08T01:25:20.847Z,22.9
2023-04-08T01:30:39.185Z,22.8
2023-04-08T01:35:57.630Z,22.9
2023-04-08T01:41:15.746Z,22.9
2023-04-08T01:46:34.174Z,22.9
2023-04-08T01:51:52.396Z,22.9
2023-04-08T01:57:10.783Z,22.9
2023-04-08T02:02:29.403Z,22.9
2023-04-08T02:07:48.089Z,22.9
2023-04-08T02:13:06.620Z,22.9
2023-04-08T02:18:24.817Z,22.9
2023-04-08T02:23:43.200Z,22.9
2023-04-08T02:29:02.015Z,22.9
2023-04-08T02:34:20.563Z,22.9
2023-04-08T02:39:38.592Z,22.9
2023-04-08T02:44:57.149Z,22.9
2023-04-08T02:50:15.316Z,22.9
2023-04-08T02:55:33.741Z,22.9
2023-04-08T03:00:52.184Z,22.9
2023-04-08T03:06:10.764Z,22.9
2023-04-08T03:11:29.149Z,22.9
2023-04-08T03:16:47.290Z,22.9
2023-04-08T03:22:05.531Z,22.9
2023-04-08T03:27:26.677Z,22.9
2023-04-08T03:32:45.337Z,22.9
2023-04-08T03:38:03.570Z,22.9
2023-04-08T03:43:22.150Z,23
2023-04-08T03:48:40.318Z,23
2023-04-08T03:53:58.683Z,23
2023-04-08T03:59:16.905Z,23
2023-04-08T04:04:35.178Z,23
2023-04-08T04:09:53.531Z,23
2023-04-08T04:15:11.767Z,23
2023-04-08T04:20:30.439Z,23
2023-04-08T04:25:48.772Z,23
2023-04-08T04:31:07.490Z,23
2023-04-08T04:36:25.885Z,23
2023-04-08T04:41:44.439Z,23
2023-04-08T04:47:02.951Z,23
2023-04-08T04:52:21.113Z,23
2023-04-08T04:57:39.292Z,23
2023-04-08T05:02:57.737Z,23
2023-04-08T05:08:16.200Z,23
2023-04-08T05:13:34.119Z,23
2023-04-08T05:18:53.061Z,23.1
2023-04-08T05:24:11.671Z,23.1
2023-04-08T05:29:30.014Z,23.1
2023-04-08T05:34:48.757Z,23.1
2023-04-08T05:40:07.032Z,23.1
2023-04-08T05:45:25.418Z,23.1
2023-04-08T05:50:43.499Z,23.1
2023-04-08T05:56:03.459Z,23.1
2023-04-08T06:01:21.852Z,23.1
2023-04-08T06:06:43.303Z,23.1
2023-04-08T06:12:01.631Z,23.1
2023-04-08T06:17:20.301Z,23.1
2023-04-08T06:22:38.578Z,23
2023-04-08T06:27:57.274Z,23
2023-04-08T06:33:15.825Z,23
2023-04-08T06:38:18.533Z,23
2023-04-08T06:43:36.989Z,23
2023-04-08T06:48:55.944Z,23
2023-04-08T06:54:14.108Z,23
2023-04-08T06:59:32.279Z,23
2023-04-08T07:04:50.937Z,22.9
2023-04-08T07:10:11.574Z,22.7
2023-04-08T07:15:30.152Z,22.6
2023-04-08T07:20:48.462Z,22.7
2023-04-08T07:26:07.118Z,22.8
2023-04-08T07:31:25.550Z,22.7
2023-04-08T07:36:44.252Z,22.8
2023-04-08T07:42:02.795Z,22.8
2023-04-08T07:47:05.571Z,22.8
2023-04-08T07:52:24.219Z,22.8
2023-04-08T07:57:42.748Z,22.8
2023-04-08T08:03:02.900Z,22.9
2023-04-08T08:08:21.196Z,22.9
2023-04-08T08:13:40.493Z,22.9
2023-04-08T08:18:58.930Z,22.9
2023-04-08T08:24:17.480Z,22.8
2023-04-08T08:29:35.758Z,22.8
2023-04-08T08:34:54.242Z,22.9
2023-04-08T08:40:12.585Z,22.9
2023-04-08T08:45:31.053Z,22.9
2023-04-08T08:50:49.239Z,22.9
2023-04-08T08:56:19.075Z,22.9
2023-04-08T09:01:38.313Z,22.9
2023-04-08T09:06:57.327Z,22.9
2023-04-08T09:12:18.310Z,23
2023-04-08T09:17:37.168Z,23
2023-04-08T09:22:55.205Z,22.8
2023-04-08T09:28:13.632Z,23
2023-04-08T09:33:16.210Z,23
2023-04-08T09:38:34.379Z,23
2023-04-08T09:43:53.197Z,23
2023-04-08T09:49:11.878Z,23.1
2023-04-08T09:54:30.209Z,23.2
2023-04-08T09:59:48.559Z,23.2
2023-04-08T10:05:08.875Z,23.3
2023-04-08T10:10:27.474Z,23.3
2023-04-08T10:15:45.787Z,23.3
2023-04-08T10:21:04.162Z,23.3
2023-04-08T10:26:22.489Z,23.3
2023-04-08T10:31:40.725Z,23.3
2023-04-08T10:36:43.479Z,23.3
2023-04-08T10:41:46.261Z,23.3
2023-04-08T10:47:04.668Z,23.3
2023-04-08T10:52:22.680Z,23.3
2023-04-08T10:57:41.035Z,23.3
2023-04-08T11:02:59.098Z,23.3
2023-04-08T11:08:21.131Z,23.3
2023-04-08T11:13:39.373Z,23.3
2023-04-08T11:18:57.615Z,23.3
2023-04-08T11:24:15.793Z,23.4
2023-04-08T11:29:34.048Z,23.3
2023-04-08T11:34:52.303Z,23.3
2023-04-08T11:40:10.649Z,23.3
2023-04-08T11:45:28.994Z,23.4
2023-04-08T11:50:47.257Z,23.3
2023-04-08T11:56:05.559Z,23.4
2023-04-08T12:01:23.786Z,23.4
2023-04-08T12:06:42.321Z,23.4
2023-04-08T12:12:00.559Z,23.3
2023-04-08T12:17:20.030Z,23.4
2023-04-08T12:22:38.553Z,23.4
2023-04-08T12:27:56.802Z,23.4
2023-04-08T12:33:15.150Z,23.4
2023-04-08T12:38:33.583Z,23.4
2023-04-08T12:43:51.557Z,23.4
2023-04-08T12:49:10.101Z,23.4
2023-04-08T12:54:28.275Z,23.4
2023-04-08T12:59:46.477Z,23.3
2023-04-08T13:05:04.839Z,23.3
2023-04-08T13:10:23.203Z,23.3
2023-04-08T13:15:41.416Z,23.3
2023-04-08T13:20:59.598Z,23.4
2023-04-08T13:26:17.999Z,23.3
2023-04-08T13:31:36.566Z,23.4
2023-04-08T13:36:54.662Z,23.4
2023-04-08T13:42:13.023Z,23.4
2023-04-08T13:47:15.806Z,23.3
2023-04-08T13:52:34.250Z,23.3
2023-04-08T13:57:52.866Z,23.3
2023-04-08T14:03:11.424Z,23.3
2023-04-08T14:08:29.850Z,23.3
2023-04-08T14:13:48.208Z,23.3
2023-04-08T14:19:06.835Z,23.3
2023-04-08T14:24:25.224Z,23.3
2023-04-08T14:29:43.923Z,23.3
2023-04-08T14:35:02.527Z,23.3
2023-04-08T14:40:21.251Z,23.3
2023-04-08T14:45:39.404Z,23.3
2023-04-08T14:50:57.641Z,23.3
2023-04-08T14:56:16.176Z,23.2
2023-04-08T15:01:34.730Z,23.2
2023-04-08T15:06:52.985Z,23.2
2023-04-08T15:12:13.702Z,23.2
2023-04-08T15:17:32.120Z,23.2
2023-04-08T15:22:50.346Z,23.2
2023-04-08T15:28:08.936Z,23.2
2023-04-08T15:33:27.346Z,23.2
2023-04-08T15:38:45.633Z,23.2
2023-04-08T15:44:03.608Z,23.2
2023-04-08T15:49:22.077Z,23.2
2023-04-08T15:54:40.963Z,23.1
2023-04-08T15:59:59.503Z,23.1
2023-04-08T16:05:18.713Z,23.1
2023-04-08T16:10:37.264Z,23.1
2023-04-08T16:15:55.988Z,23.1
2023-04-08T16:21:14.547Z,23.1
2023-04-08T16:26:32.920Z,23.1
2023-04-08T16:31:55.007Z,23.1
2023-04-08T16:37:15.734Z,23.1
2023-04-08T16:42:33.877Z,23.1
2023-04-08T16:47:52.178Z,23.1
2023-04-08T16:53:10.881Z,23.1
2023-04-08T16:58:29.268Z,23.1
2023-04-08T17:03:47.677Z,23.1
2023-04-08T17:09:06.292Z,23.1
2023-04-08T17:14:24.472Z,23.2
2023-04-08T17:19:43.032Z,23.2
2023-04-08T17:25:04.256Z,23.2
2023-04-08T17:30:25.824Z,23.2
2023-04-08T17:35:44.197Z,23.2
2023-04-08T17:41:02.266Z,23.1
2023-04-08T17:46:20.826Z,23.2
2023-04-08T17:51:39.142Z,23.2
2023-04-08T17:56:57.456Z,23.2
2023-04-08T18:02:15.714Z,23.1
2023-04-08T18:07:34.238Z,23.1
2023-04-08T18:13:11.525Z,23.1
2023-04-08T18:18:30.175Z,23.1
2023-04-08T18:23:48.675Z,23.1
2023-04-08T18:29:07.944Z,23.1
2023-04-08T18:34:26.343Z,23.1
2023-04-08T18:39:44.664Z,23.1
2023-04-08T18:45:02.605Z,23.1
2023-04-08T18:50:21.017Z,23.1
2023-04-08T18:55:39.251Z,23.1
2023-04-08T19:00:57.571Z,23.1
2023-04-08T19:06:15.936Z,23.1
2023-04-08T19:11:34.065Z,23.1
2023-04-08T19:16:52.820Z,23.1
2023-04-08T19:22:11.402Z,23.1
2023-04-08T19:27:29.361Z,23.1
2023-04-08T19:32:47.670Z,23.1
2023-04-08T19:38:06.386Z,23.1
2023-04-08T19:43:24.336Z,23.1
2023-04-08T19:48:42.701Z,23.1
2023-04-08T19:54:01.287Z,23.1
2023-04-08T19:59:19.663Z,23.1
2023-04-08T20:04:38.273Z,23.1
2023-04-08T20:09:56.852Z,23.1
2023-04-08T20:15:25.523Z,23.1
2023-04-08T20:20:44.298Z,23.1
2023-04-08T20:26:03.323Z,23.1
2023-04-08T20:31:21.515Z,23.1
2023-04-08T20:36:40.124Z,23.1
2023-04-08T20:41:58.508Z,23.1
2023-04-08T20:47:16.685Z,23.1
2023-04-08T20:52:35.070Z,23
2023-04-08T20:57:53.671Z,23.1
2023-04-08T21:03:12.225Z,23.1
2023-04-08T21:08:30.420Z,23.1
2023-04-08T21:13:49.727Z,23.1
2023-04-08T21:19:07.657Z,23.1
2023-04-08T21:24:26.276Z,23.1
2023-04-08T21:29:44.797Z,23.1
2023-04-08T21:35:02.993Z,23.1
2023-04-08T21:40:21.452Z,23.1
2023-04-08T21:45:39.713Z,23.1
2023-04-08T21:50:57.966Z,23.1
2023-04-08T21:56:16.288Z,23.1
2023-04-08T22:01:34.548Z,23.1
2023-04-08T22:06:53.395Z,23.1
2023-04-08T22:12:11.964Z,23.1
2023-04-08T22:17:30.442Z,23.1
2023-04-08T22:22:48.643Z,23.1
2023-04-08T22:28:07.186Z,23.1
2023-04-08T22:33:25.365Z,23.1
2023-04-08T22:38:43.735Z,23.1
2023-04-08T22:44:02.101Z,23.1
2023-04-08T22:49:20.682Z,23.1
2023-04-08T22:54:38.916Z,23.1
2023-04-08T22:59:57.392Z,23.1
2023-04-08T23:05:15.990Z,23.1
2023-04-08T23:10:34.394Z,23.1
2023-04-08T23:15:52.931Z,23.1
2023-04-08T23:21:11.128Z,23.1
2023-04-08T23:26:29.278Z,23.1
2023-04-08T23:31:47.607Z,23.1
2023-04-08T23:37:05.664Z,23.1
2023-04-08T23:42:23.886Z,23.1
2023-04-08T23:47:42.276Z,23.1
2023-04-08T23:53:00.505Z,23.1
2023-04-08T23:58:20.134Z,23.1
